Time;durP1;ratioP1;P1;durP2;ratioP2;P2;SDS_P1;SDS_P2;PMS_P1;PMS_P2;Temp;Humidity;BMP_temperature;BMP_pressure;BME280_temperature;BME280_humidity;BME280_pressure;Samples;Min_cycle;Max_cycle;Signal;HPM_P1;HPM_P2
2022/11/28 00:00:56;;;;;;;19.15;11.88;;;;;;;;;;5071306;28;20063;-78
2022/11/28 00:03:23;;;;;;;19.92;11.43;;;;;;;;;;5054767;28;20110;-79
2022/11/28 00:05:49;;;;;;;20.13;11.85;;;;;;;;;;5071366;28;20044;-79
2022/11/28 00:08:15;;;;;;;20.38;11.10;;;;;;;;;;5070973;28;20051;-79
2022/11/28 00:10:42;;;;;;;21.48;11.10;;;;;;;;;;5071023;28;20515;-79
2022/11/28 00:13:08;;;;;;;19.20;10.55;;;;;;;;;;5071390;28;20513;-79
2022/11/28 00:15:34;;;;;;;19.88;10.75;;;;;;;;;;5054299;28;20555;-79
2022/11/28 00:18:00;;;;;;;18.02;10.70;;;;;;;;;;5071020;28;20044;-79
2022/11/28 00:20:26;;;;;;;21.83;10.68;;;;;;;;;;5037526;28;20175;-79
2022/11/28 00:22:52;;;;;;;18.35;10.32;;;;;;;;;;5054293;28;20040;-79
2022/11/28 00:25:18;;;;;;;17.65;11.10;;;;;;;;;;5054249;28;20048;-79
2022/11/28 00:27:44;;;;;;;17.50;10.32;;;;;;;;;;5070910;28;20040;-79
2022/11/28 00:30:10;;;;;;;18.60;11.05;;;;;;;;;;5088269;28;20051;-79
2022/11/28 00:32:36;;;;;;;18.60;10.25;;;;;;;;;;5072378;28;20037;-79
2022/11/28 00:35:03;;;;;;;17.35;10.52;;;;;;;;;;5043040;28;20043;-79
2022/11/28 00:37:29;;;;;;;15.85;9.82;;;;;;;;;;5057034;28;20558;-79
2022/11/28 00:39:55;;;;;;;18.88;10.48;;;;;;;;;;5070984;28;20529;-79
2022/11/28 00:42:22;;;;;;;18.55;11.23;;;;;;;;;;5071068;28;20057;-80
2022/11/28 00:44:48;;;;;;;18.58;11.10;;;;;;;;;;5071050;28;20416;-79
2022/11/28 00:47:15;;;;;;;20.48;11.00;;;;;;;;;;5070935;28;20210;-79
2022/11/28 00:49:41;;;;;;;18.75;10.88;;;;;;;;;;5070456;28;20048;-79
2022/11/28 00:52:07;;;;;;;20.10;10.65;;;;;;;;;;5071327;28;20493;-79
2022/11/28 00:54:34;;;;;;;18.27;11.13;;;;;;;;;;5056481;28;20044;-79
2022/11/28 00:57:00;;;;;;;22.92;10.55;;;;;;;;;;5054532;28;20038;-78
2022/11/28 00:59:26;;;;;;;20.00;11.35;;;;;;;;;;5041014;28;20048;-79
2022/11/28 01:01:52;;;;;;;21.70;12.55;;;;;;;;;;5069551;28;20036;-78
2022/11/28 01:04:18;;;;;;;19.33;11.15;;;;;;;;;;5054205;28;20127;-79
2022/11/28 01:06:46;;;;;;;18.90;11.85;;;;;;;;;;5053668;28;20040;-79
2022/11/28 01:09:19;;;;;;;20.08;11.98;;;;;;;;;;5070727;28;20041;-79
2022/11/28 01:11:47;;;;;;;23.08;13.60;;;;;;;;;;5056271;28;20123;-79
2022/11/28 01:14:14;;;;;;;20.50;12.13;;;;;;;;;;5054014;28;20040;-79
2022/11/28 01:16:40;;;;;;;20.27;12.43;;;;;;;;;;5071410;28;20044;-79
2022/11/28 01:19:07;;;;;;;25.00;13.10;;;;;;;;;;5057932;28;20389;-79
2022/11/28 01:21:33;;;;;;;25.05;13.80;;;;;;;;;;5074739;28;20443;-79
2022/11/28 01:23:59;;;;;;;25.23;14.90;;;;;;;;;;5068926;28;20087;-79
2022/11/28 01:26:27;;;;;;;27.10;14.88;;;;;;;;;;5048961;28;20040;-79
2022/11/28 01:28:53;;;;;;;27.40;14.52;;;;;;;;;;5066628;28;20029;-80
2022/11/28 01:31:21;;;;;;;26.40;13.80;;;;;;;;;;5063889;28;20052;-79
2022/11/28 01:33:47;;;;;;;26.90;14.52;;;;;;;;;;5073438;28;20040;-79
2022/11/28 01:36:13;;;;;;;26.25;14.00;;;;;;;;;;5090997;28;20047;-78
2022/11/28 01:38:40;;;;;;;32.63;15.55;;;;;;;;;;5073314;28;20044;-79
2022/11/28 01:41:07;;;;;;;31.38;15.10;;;;;;;;;;5073884;28;20128;-79
2022/11/28 01:43:33;;;;;;;30.60;15.68;;;;;;;;;;5074156;28;20339;-79
2022/11/28 01:45:59;;;;;;;32.13;16.48;;;;;;;;;;5073367;28;20067;-79
2022/11/28 01:48:52;;;;;;;34.60;15.57;;;;;;;;;;5075146;28;20044;-79
2022/11/28 01:51:18;;;;;;;29.17;14.68;;;;;;;;;;5070888;28;20528;-79
2022/11/28 01:53:45;;;;;;;31.23;16.65;;;;;;;;;;5073401;28;20166;-79
2022/11/28 01:56:20;;;;;;;31.10;16.10;;;;;;;;;;5073497;28;20119;-79
2022/11/28 01:58:48;;;;;;;30.35;16.00;;;;;;;;;;5073436;28;20033;-79
2022/11/28 02:01:15;;;;;;;35.00;17.63;;;;;;;;;;5073813;28;20036;-79
2022/11/28 02:03:45;;;;;;;32.80;18.17;;;;;;;;;;5078764;28;20037;-78
2022/11/28 02:06:13;;;;;;;36.85;18.42;;;;;;;;;;5060689;28;20107;-79
2022/11/28 02:08:39;;;;;;;28.13;15.85;;;;;;;;;;5055758;28;20036;-79
2022/11/28 02:11:23;;;;;;;33.17;16.95;;;;;;;;;;5056696;28;20090;-79
2022/11/28 02:13:55;;;;;;;28.17;15.88;;;;;;;;;;5073016;28;20119;-79
2022/11/28 02:16:34;;;;;;;33.05;17.00;;;;;;;;;;5107178;28;20121;-79
2022/11/28 02:19:18;;;;;;;37.20;16.92;;;;;;;;;;5078506;28;20048;-79
2022/11/28 02:22:14;;;;;;;29.98;15.63;;;;;;;;;;5073306;28;20112;-79
2022/11/28 02:24:49;;;;;;;28.08;16.50;;;;;;;;;;5051572;28;20055;-79
2022/11/28 02:27:28;;;;;;;26.52;14.77;;;;;;;;;;5072670;28;20072;-79
2022/11/28 02:30:09;;;;;;;30.13;16.05;;;;;;;;;;5055582;28;20485;-79
2022/11/28 02:32:40;;;;;;;34.90;17.17;;;;;;;;;;5045518;28;20477;-80
2022/11/28 02:35:15;;;;;;;28.65;15.93;;;;;;;;;;5061043;28;20072;-79
2022/11/28 02:37:59;;;;;;;30.55;15.98;;;;;;;;;;5045113;28;20078;-79
2022/11/28 02:40:28;;;;;;;31.88;16.88;;;;;;;;;;5073731;28;20052;-79
2022/11/28 02:43:08;;;;;;;32.15;17.48;;;;;;;;;;5072783;28;20048;-79
2022/11/28 02:45:53;;;;;;;34.83;17.02;;;;;;;;;;5072837;28;20068;-79
2022/11/28 02:48:26;;;;;;;32.13;18.40;;;;;;;;;;5072841;28;20497;-79
2022/11/28 02:50:55;;;;;;;32.92;17.30;;;;;;;;;;5071897;28;20048;-79
2022/11/28 02:53:24;;;;;;;33.70;18.77;;;;;;;;;;5072518;28;20044;-79
2022/11/28 02:55:50;;;;;;;37.47;18.55;;;;;;;;;;5055553;28;20550;-79
2022/11/28 02:58:17;;;;;;;39.38;19.02;;;;;;;;;;5055734;28;20072;-80
2022/11/28 03:00:44;;;;;;;39.45;20.73;;;;;;;;;;5062069;28;20096;-79
2022/11/28 03:03:29;;;;;;;36.45;19.75;;;;;;;;;;5054753;28;20134;-79
2022/11/28 03:06:21;;;;;;;40.45;20.13;;;;;;;;;;5070829;28;20044;-80
2022/11/28 03:08:54;;;;;;;41.78;21.20;;;;;;;;;;5069171;28;20052;-80
2022/11/28 03:11:20;;;;;;;42.85;20.80;;;;;;;;;;5071918;28;20405;-79
2022/11/28 03:13:56;;;;;;;41.55;20.88;;;;;;;;;;5072229;28;20111;-79
2022/11/28 03:16:22;;;;;;;36.13;19.42;;;;;;;;;;5072300;28;20040;-79
2022/11/28 03:18:58;;;;;;;42.10;21.92;;;;;;;;;;5067221;28;20370;-79
2022/11/28 03:21:25;;;;;;;40.65;19.90;;;;;;;;;;5064302;28;20401;-79
2022/11/28 03:23:59;;;;;;;40.08;20.80;;;;;;;;;;5062747;28;20052;-79
2022/11/28 03:26:45;;;;;;;36.92;20.08;;;;;;;;;;5071711;28;20044;-79
2022/11/28 03:29:47;;;;;;;43.53;20.80;;;;;;;;;;5047108;28;20066;-79
2022/11/28 03:32:16;;;;;;;39.20;20.75;;;;;;;;;;4987379;28;20052;-79
2022/11/28 03:34:45;;;;;;;39.60;20.90;;;;;;;;;;5056582;28;20049;-79
2022/11/28 03:37:15;;;;;;;38.65;20.10;;;;;;;;;;5066771;28;20051;-79
2022/11/28 03:39:45;;;;;;;41.47;20.58;;;;;;;;;;5071169;28;20044;-79
2022/11/28 03:42:16;;;;;;;41.45;21.67;;;;;;;;;;5071371;28;20582;-79
2022/11/28 03:44:45;;;;;;;41.85;20.83;;;;;;;;;;5051647;28;20068;-79
2022/11/28 03:47:11;;;;;;;39.83;21.15;;;;;;;;;;5051157;28;20079;-79
2022/11/28 03:49:40;;;;;;;38.35;20.02;;;;;;;;;;5069786;28;20044;-79
2022/11/28 03:52:18;;;;;;;43.38;20.23;;;;;;;;;;5070947;28;20044;-79
2022/11/28 03:54:52;;;;;;;40.78;20.05;;;;;;;;;;5071540;28;20036;-80
2022/11/28 03:57:28;;;;;;;39.70;20.38;;;;;;;;;;5071379;28;20043;-80
2022/11/28 03:59:57;;;;;;;39.85;20.20;;;;;;;;;;5066158;28;20033;-79
2022/11/28 04:02:41;;;;;;;39.95;20.40;;;;;;;;;;5095764;28;20047;-80
2022/11/28 04:05:15;;;;;;;38.60;19.90;;;;;;;;;;5071229;28;20436;-79
2022/11/28 04:07:47;;;;;;;36.75;19.02;;;;;;;;;;5071389;28;20044;-80
2022/11/28 04:10:34;;;;;;;37.65;19.10;;;;;;;;;;5071027;28;20410;-79
2022/11/28 04:13:12;;;;;;;37.75;19.20;;;;;;;;;;5070789;28;20459;-79
2022/11/28 04:15:54;;;;;;;37.10;18.67;;;;;;;;;;5059523;28;20037;-79
2022/11/28 04:18:20;;;;;;;37.10;19.55;;;;;;;;;;5072769;28;20443;-79
2022/11/28 04:20:51;;;;;;;36.50;17.48;;;;;;;;;;5070990;28;20050;-80
2022/11/28 04:23:18;;;;;;;37.70;18.95;;;;;;;;;;5072623;28;20040;-80
2022/11/28 04:25:46;;;;;;;38.50;19.23;;;;;;;;;;5054452;28;20123;-80
2022/11/28 04:28:14;;;;;;;32.53;17.73;;;;;;;;;;5068098;28;20103;-80
2022/11/28 04:30:42;;;;;;;43.85;20.52;;;;;;;;;;5062699;28;20040;-80
2022/11/28 04:33:09;;;;;;;40.55;19.25;;;;;;;;;;5072092;28;20508;-80
2022/11/28 04:35:41;;;;;;;35.25;18.02;;;;;;;;;;5056770;28;20044;-80
2022/11/28 04:38:09;;;;;;;37.03;18.10;;;;;;;;;;5070418;28;20117;-79
2022/11/28 04:40:38;;;;;;;38.42;18.90;;;;;;;;;;5104418;28;20057;-80
2022/11/28 04:43:08;;;;;;;33.17;18.38;;;;;;;;;;5070691;28;20067;-80
2022/11/28 04:45:36;;;;;;;42.15;18.88;;;;;;;;;;5054008;28;20097;-80
2022/11/28 04:48:02;;;;;;;38.40;17.95;;;;;;;;;;5071780;28;20029;-80
2022/11/28 04:50:31;;;;;;;33.45;17.75;;;;;;;;;;5071824;28;20155;-80
2022/11/28 04:53:01;;;;;;;34.70;17.63;;;;;;;;;;5074287;28;20043;-80
2022/11/28 04:55:45;;;;;;;31.90;17.60;;;;;;;;;;5074996;28;20619;-80
2022/11/28 04:58:19;;;;;;;33.17;16.55;;;;;;;;;;5049163;28;20090;-80
2022/11/28 05:00:47;;;;;;;31.73;16.60;;;;;;;;;;5073082;28;20428;-80
2022/11/28 05:03:13;;;;;;;33.28;16.98;;;;;;;;;;5056750;28;20041;-80
2022/11/28 05:05:49;;;;;;;32.72;17.20;;;;;;;;;;5074184;28;20512;-80
2022/11/28 05:08:16;;;;;;;30.00;16.42;;;;;;;;;;5031937;28;20073;-80
2022/11/28 05:10:42;;;;;;;34.28;18.63;;;;;;;;;;5018324;28;20053;-80
2022/11/28 05:13:08;;;;;;;28.27;16.30;;;;;;;;;;5036443;28;20378;-80
2022/11/28 05:15:35;;;;;;;27.75;15.27;;;;;;;;;;5037569;28;20076;-80
2022/11/28 05:18:01;;;;;;;31.73;16.85;;;;;;;;;;5054158;28;20033;-80
2022/11/28 05:20:27;;;;;;;33.22;17.33;;;;;;;;;;5054238;28;20136;-80
2022/11/28 05:22:53;;;;;;;28.02;16.38;;;;;;;;;;5053878;28;20036;-80
2022/11/28 05:25:19;;;;;;;25.05;14.63;;;;;;;;;;5054035;28;20041;-80
2022/11/28 05:27:45;;;;;;;26.80;15.35;;;;;;;;;;5054058;28;20045;-80
2022/11/28 05:30:12;;;;;;;28.20;15.45;;;;;;;;;;5053441;28;20045;-80
2022/11/28 05:32:38;;;;;;;28.35;15.35;;;;;;;;;;5060787;28;20076;-80
2022/11/28 05:35:04;;;;;;;30.67;15.32;;;;;;;;;;5061947;28;20060;-80
2022/11/28 05:37:30;;;;;;;29.08;15.65;;;;;;;;;;5073001;28;20059;-79
2022/11/28 05:39:56;;;;;;;27.02;14.15;;;;;;;;;;5075033;28;20044;-79
2022/11/28 05:42:24;;;;;;;26.80;14.98;;;;;;;;;;5057104;28;20063;-79
2022/11/28 05:44:50;;;;;;;30.40;15.20;;;;;;;;;;5074222;28;20078;-80
2022/11/28 05:47:16;;;;;;;29.10;15.07;;;;;;;;;;5090561;28;20051;-80
2022/11/28 05:49:43;;;;;;;30.27;15.10;;;;;;;;;;5107630;28;20037;-80
2022/11/28 05:52:09;;;;;;;27.40;14.43;;;;;;;;;;5073380;28;20047;-80
2022/11/28 05:54:35;;;;;;;28.52;14.35;;;;;;;;;;5073696;28;20072;-80
2022/11/28 05:57:01;;;;;;;29.15;15.10;;;;;;;;;;5107659;28;20040;-80
2022/11/28 05:59:27;;;;;;;30.17;14.00;;;;;;;;;;5073432;28;20151;-80
2022/11/28 06:01:53;;;;;;;27.88;14.52;;;;;;;;;;5073615;28;20405;-79
2022/11/28 06:04:19;;;;;;;27.55;14.38;;;;;;;;;;5073142;28;20052;-80
2022/11/28 06:06:45;;;;;;;28.35;14.50;;;;;;;;;;5073482;28;20044;-79
2022/11/28 06:09:12;;;;;;;29.13;14.32;;;;;;;;;;5056422;28;20040;-80
2022/11/28 06:11:38;;;;;;;29.38;14.40;;;;;;;;;;5059483;28;20079;-80
2022/11/28 06:14:05;;;;;;;34.25;15.00;;;;;;;;;;5073209;28;20037;-80
2022/11/28 06:16:31;;;;;;;25.52;13.70;;;;;;;;;;5072838;28;20033;-80
2022/11/28 06:18:58;;;;;;;26.13;13.82;;;;;;;;;;5073415;28;20052;-80
2022/11/28 06:21:24;;;;;;;31.90;14.27;;;;;;;;;;5072840;28;20151;-78
2022/11/28 06:23:51;;;;;;;28.88;14.20;;;;;;;;;;5073340;28;20489;-79
2022/11/28 06:26:18;;;;;;;28.27;14.00;;;;;;;;;;5072690;28;20216;-79
2022/11/28 06:28:45;;;;;;;32.30;14.82;;;;;;;;;;5072730;28;20041;-80
2022/11/28 06:31:12;;;;;;;27.77;14.10;;;;;;;;;;5043842;28;20170;-80
2022/11/28 06:33:38;;;;;;;30.02;14.35;;;;;;;;;;5055397;28;20482;-80
2022/11/28 06:36:05;;;;;;;26.45;13.85;;;;;;;;;;5073343;28;20036;-80
2022/11/28 06:38:31;;;;;;;28.48;14.05;;;;;;;;;;5058991;28;20047;-80
2022/11/28 06:40:59;;;;;;;33.33;14.95;;;;;;;;;;5055529;28;20064;-80
2022/11/28 06:43:25;;;;;;;34.17;14.65;;;;;;;;;;5072454;28;20116;-80
2022/11/28 06:45:51;;;;;;;27.83;13.77;;;;;;;;;;5072766;28;20044;-80
2022/11/28 06:48:17;;;;;;;27.85;14.02;;;;;;;;;;5062481;28;20059;-80
2022/11/28 06:50:43;;;;;;;28.88;14.73;;;;;;;;;;5054455;28;20053;-81
2022/11/28 06:53:09;;;;;;;31.35;13.85;;;;;;;;;;5072654;28;20095;-80
2022/11/28 06:55:35;;;;;;;30.23;14.57;;;;;;;;;;5072323;28;20045;-80
2022/11/28 06:58:01;;;;;;;29.13;13.88;;;;;;;;;;5059413;28;20082;-79
2022/11/28 07:00:28;;;;;;;32.75;14.15;;;;;;;;;;5073835;28;20493;-79
2022/11/28 07:02:54;;;;;;;28.20;13.68;;;;;;;;;;5041466;28;20052;-79
2022/11/28 07:05:21;;;;;;;30.15;14.07;;;;;;;;;;5072427;28;20056;-81
2022/11/28 07:07:48;;;;;;;29.25;14.02;;;;;;;;;;5055954;28;20151;-81
2022/11/28 07:10:14;;;;;;;29.30;13.23;;;;;;;;;;5072242;28;20040;-80
2022/11/28 07:12:40;;;;;;;29.77;13.85;;;;;;;;;;5071749;28;20040;-81
2022/11/28 07:15:07;;;;;;;29.63;13.88;;;;;;;;;;5071720;28;20147;-80
2022/11/28 07:17:33;;;;;;;25.05;12.20;;;;;;;;;;5072082;28;20449;-81
2022/11/28 07:19:59;;;;;;;24.98;12.55;;;;;;;;;;5055612;28;20072;-81
2022/11/28 07:22:25;;;;;;;27.27;13.63;;;;;;;;;;5071590;28;20037;-80
2022/11/28 07:24:52;;;;;;;26.05;12.60;;;;;;;;;;5055035;28;20040;-80
2022/11/28 07:27:18;;;;;;;28.30;13.10;;;;;;;;;;5071507;28;20040;-80
2022/11/28 07:29:44;;;;;;;23.20;12.00;;;;;;;;;;5054799;28;20392;-80
2022/11/28 07:32:10;;;;;;;22.20;11.85;;;;;;;;;;5071517;28;20105;-80
2022/11/28 07:34:37;;;;;;;22.63;11.43;;;;;;;;;;5054615;28;20405;-79
2022/11/28 07:37:03;;;;;;;23.73;12.10;;;;;;;;;;5055252;28;20465;-80
2022/11/28 07:39:29;;;;;;;24.73;11.93;;;;;;;;;;5071042;28;20048;-80
2022/11/28 07:41:55;;;;;;;21.63;11.07;;;;;;;;;;5071763;28;20558;-79
2022/11/28 07:44:21;;;;;;;26.63;11.35;;;;;;;;;;5054504;28;20044;-80
2022/11/28 07:46:47;;;;;;;21.77;11.02;;;;;;;;;;5071572;28;20052;-80
2022/11/28 07:49:13;;;;;;;21.33;10.25;;;;;;;;;;5054880;28;20171;-80
2022/11/28 07:51:40;;;;;;;24.02;10.95;;;;;;;;;;5061251;28;20123;-80
2022/11/28 07:54:07;;;;;;;18.35;10.75;;;;;;;;;;5066937;28;20047;-80
2022/11/28 07:56:34;;;;;;;24.85;11.45;;;;;;;;;;5063291;28;20064;-80
2022/11/28 07:59:00;;;;;;;19.52;10.40;;;;;;;;;;5051570;28;20037;-80
2022/11/28 08:01:28;;;;;;;19.73;10.23;;;;;;;;;;5065019;28;20270;-80
2022/11/28 08:03:55;;;;;;;19.48;10.57;;;;;;;;;;5051584;28;20401;-80
2022/11/28 08:06:23;;;;;;;22.63;11.10;;;;;;;;;;5085075;28;20547;-80
2022/11/28 08:08:49;;;;;;;23.60;11.52;;;;;;;;;;5062207;28;20083;-80
2022/11/28 08:11:17;;;;;;;23.65;10.75;;;;;;;;;;5058684;28;20141;-80
2022/11/28 08:13:43;;;;;;;22.10;11.60;;;;;;;;;;5072186;28;20389;-80
2022/11/28 08:16:11;;;;;;;25.10;12.48;;;;;;;;;;5071236;28;20044;-81
2022/11/28 08:18:38;;;;;;;25.30;12.35;;;;;;;;;;5064915;28;20049;-79
2022/11/28 08:21:08;;;;;;;26.35;12.10;;;;;;;;;;5048251;28;20048;-80
2022/11/28 08:23:35;;;;;;;22.90;11.20;;;;;;;;;;5070939;28;20048;-79
2022/11/28 08:26:02;;;;;;;26.77;12.45;;;;;;;;;;5070962;28;20048;-80
2022/11/28 08:28:28;;;;;;;24.27;11.73;;;;;;;;;;5066200;28;20089;-79
2022/11/28 08:30:55;;;;;;;23.70;11.50;;;;;;;;;;5045459;28;20041;-79
2022/11/28 08:33:21;;;;;;;21.33;11.85;;;;;;;;;;5054570;28;20140;-80
2022/11/28 08:35:47;;;;;;;26.25;12.23;;;;;;;;;;5072147;28;20047;-80
2022/11/28 08:38:13;;;;;;;24.33;11.77;;;;;;;;;;5071190;28;20051;-80
2022/11/28 08:40:40;;;;;;;24.55;12.50;;;;;;;;;;5068849;28;20520;-79
2022/11/28 08:43:06;;;;;;;25.85;11.63;;;;;;;;;;5060195;28;20052;-80
2022/11/28 08:45:34;;;;;;;22.23;11.38;;;;;;;;;;5054177;28;20516;-80
2022/11/28 08:48:00;;;;;;;22.65;11.80;;;;;;;;;;5071484;28;20505;-80
2022/11/28 08:50:26;;;;;;;23.70;11.30;;;;;;;;;;5070762;28;20076;-80
2022/11/28 08:52:52;;;;;;;24.08;11.90;;;;;;;;;;5056858;28;20040;-80
2022/11/28 08:55:18;;;;;;;20.63;11.30;;;;;;;;;;5071069;28;20039;-80
2022/11/28 08:57:45;;;;;;;25.95;12.05;;;;;;;;;;5056485;28;20115;-80
2022/11/28 09:00:11;;;;;;;22.55;11.10;;;;;;;;;;5104684;28;20105;-80
2022/11/28 09:02:38;;;;;;;20.52;11.20;;;;;;;;;;5054082;28;20432;-80
2022/11/28 09:05:04;;;;;;;21.17;10.90;;;;;;;;;;5064109;28;20094;-80
2022/11/28 09:07:30;;;;;;;21.08;11.68;;;;;;;;;;5064625;28;20039;-80
2022/11/28 09:09:56;;;;;;;23.58;11.02;;;;;;;;;;5042904;28;20111;-80
2022/11/28 09:12:22;;;;;;;20.92;11.20;;;;;;;;;;5072224;28;20101;-80
2022/11/28 09:14:48;;;;;;;19.90;11.07;;;;;;;;;;5056807;28;20052;-80
2022/11/28 09:17:14;;;;;;;18.90;11.02;;;;;;;;;;5060800;28;20453;-80
2022/11/28 09:19:41;;;;;;;23.23;11.60;;;;;;;;;;5050045;28;20076;-80
2022/11/28 09:22:07;;;;;;;19.08;10.68;;;;;;;;;;5062140;28;20041;-80
2022/11/28 09:24:33;;;;;;;19.15;11.00;;;;;;;;;;5064197;28;20090;-80
2022/11/28 09:26:59;;;;;;;21.42;11.10;;;;;;;;;;5050623;28;20041;-80
2022/11/28 09:29:27;;;;;;;20.60;10.50;;;;;;;;;;5046480;28;20052;-80
2022/11/28 09:31:53;;;;;;;20.95;10.63;;;;;;;;;;5069970;28;20053;-80
2022/11/28 09:34:20;;;;;;;20.23;10.82;;;;;;;;;;5063739;28;20041;-79
2022/11/28 09:36:47;;;;;;;19.60;10.80;;;;;;;;;;5051530;28;20048;-80
2022/11/28 09:39:13;;;;;;;18.10;10.43;;;;;;;;;;5058954;28;20036;-79
2022/11/28 09:41:48;;;;;;;20.92;10.25;;;;;;;;;;5073874;28;20049;-80
2022/11/28 09:44:23;;;;;;;20.25;11.18;;;;;;;;;;5055633;28;20036;-79
2022/11/28 09:46:51;;;;;;;20.48;10.43;;;;;;;;;;5053919;28;20120;-80
2022/11/28 09:49:40;;;;;;;19.38;10.60;;;;;;;;;;5041391;28;20048;-80
2022/11/28 09:52:27;;;;;;;17.58;9.60;;;;;;;;;;5060861;28;20037;-80
2022/11/28 09:55:01;;;;;;;20.10;10.30;;;;;;;;;;5050564;28;20427;-80
2022/11/28 09:57:31;;;;;;;18.13;10.40;;;;;;;;;;5073797;28;20048;-80
2022/11/28 09:59:57;;;;;;;21.80;10.18;;;;;;;;;;5049253;28;20052;-80
2022/11/28 10:02:27;;;;;;;22.17;10.88;;;;;;;;;;5053765;28;20063;-80
2022/11/28 10:05:05;;;;;;;19.20;10.30;;;;;;;;;;5046984;28;20044;-80
2022/11/28 10:07:31;;;;;;;19.00;9.80;;;;;;;;;;5073559;28;20032;-80
2022/11/28 10:10:07;;;;;;;19.92;10.32;;;;;;;;;;5074584;28;20055;-80
2022/11/28 10:12:51;;;;;;;21.10;10.15;;;;;;;;;;5073526;28;20124;-80
2022/11/28 10:15:36;;;;;;;18.88;9.25;;;;;;;;;;5025358;28;20045;-80
2022/11/28 10:18:17;;;;;;;19.33;10.10;;;;;;;;;;5071041;28;20055;-80
2022/11/28 10:20:45;;;;;;;20.05;10.23;;;;;;;;;;5073203;28;20052;-80
2022/11/28 10:23:23;;;;;;;17.52;9.50;;;;;;;;;;5073232;28;20052;-80
2022/11/28 10:25:52;;;;;;;25.02;11.02;;;;;;;;;;5074258;28;20389;-80
2022/11/28 10:28:28;;;;;;;19.08;10.32;;;;;;;;;;5072813;28;20036;-80
2022/11/28 10:30:59;;;;;;;16.98;9.65;;;;;;;;;;5072732;28;20048;-80
2022/11/28 10:33:45;;;;;;;19.65;9.77;;;;;;;;;;5073076;28;20045;-80
2022/11/28 10:36:20;;;;;;;18.42;10.18;;;;;;;;;;5064589;28;20037;-81
2022/11/28 10:38:46;;;;;;;22.80;10.73;;;;;;;;;;5068284;28;20040;-81
2022/11/28 10:41:15;;;;;;;14.38;9.07;;;;;;;;;;5056187;28;20060;-81
2022/11/28 10:43:45;;;;;;;17.52;9.57;;;;;;;;;;5072841;28;20517;-80
2022/11/28 10:46:28;;;;;;;18.20;9.60;;;;;;;;;;5056066;28;20090;-80
2022/11/28 10:49:01;;;;;;;17.08;9.48;;;;;;;;;;5071352;28;20051;-80
2022/11/28 10:51:33;;;;;;;21.45;9.65;;;;;;;;;;5072833;28;20501;-81
2022/11/28 10:54:18;;;;;;;19.42;9.77;;;;;;;;;;5072263;28;20040;-80
2022/11/28 10:57:02;;;;;;;16.60;9.05;;;;;;;;;;5072419;28;20473;-80
2022/11/28 10:59:37;;;;;;;18.45;9.52;;;;;;;;;;5072501;28;20064;-80
2022/11/28 11:02:18;;;;;;;19.83;9.55;;;;;;;;;;5072145;28;20105;-81
2022/11/28 11:04:44;;;;;;;16.90;8.63;;;;;;;;;;5072208;28;20071;-81
2022/11/28 11:07:14;;;;;;;19.77;10.50;;;;;;;;;;5055736;28;20055;-81
2022/11/28 11:09:42;;;;;;;19.45;10.25;;;;;;;;;;5072600;28;20040;-81
2022/11/28 11:12:15;;;;;;;17.55;9.93;;;;;;;;;;5071778;28;20051;-81
2022/11/28 11:14:42;;;;;;;18.60;9.90;;;;;;;;;;5072268;28;20401;-81
2022/11/28 11:17:23;;;;;;;20.15;10.55;;;;;;;;;;5055747;28;20532;-81
2022/11/28 11:19:49;;;;;;;19.95;10.25;;;;;;;;;;5071782;28;20126;-81
2022/11/28 11:22:20;;;;;;;21.00;10.43;;;;;;;;;;5055509;28;20044;-80
2022/11/28 11:25:10;;;;;;;20.30;10.98;;;;;;;;;;5071665;28;20106;-81
2022/11/28 11:27:36;;;;;;;21.88;10.95;;;;;;;;;;5055334;28;20047;-81
2022/11/28 11:30:15;;;;;;;21.98;11.15;;;;;;;;;;5071335;28;20516;-81
2022/11/28 11:32:41;;;;;;;23.80;10.98;;;;;;;;;;5072096;28;20036;-81
2022/11/28 11:35:15;;;;;;;22.20;11.20;;;;;;;;;;5055397;28;20942;-81
2022/11/28 11:37:42;;;;;;;22.02;11.40;;;;;;;;;;5072016;28;20035;-81
2022/11/28 11:40:28;;;;;;;23.20;11.32;;;;;;;;;;5071332;28;20591;-81
2022/11/28 11:42:55;;;;;;;;;;;;;;;;;;5071937;28;20111;-80
2022/11/28 11:45:24;;;;;;;21.02;10.98;;;;;;;;;;5071545;28;19955;-81
2022/11/28 11:47:50;;;;;;;23.92;10.95;;;;;;;;;;5076933;28;20040;-81
2022/11/28 11:50:18;;;;;;;21.92;10.93;;;;;;;;;;5055005;28;20041;-80
2022/11/28 11:52:44;;;;;;;24.88;11.27;;;;;;;;;;5071362;28;20086;-81
2022/11/28 11:55:15;;;;;;;23.63;11.45;;;;;;;;;;5071422;28;20606;-81
2022/11/28 11:57:49;;;;;;;20.50;10.63;;;;;;;;;;5051653;28;20550;-81
2022/11/28 12:00:17;;;;;;;25.17;12.00;;;;;;;;;;5061243;28;20036;-81
2022/11/28 12:02:45;;;;;;;24.30;11.52;;;;;;;;;;5071071;28;20037;-81
2022/11/28 12:05:19;;;;;;;23.08;11.77;;;;;;;;;;5071013;28;20585;-81
2022/11/28 12:07:48;;;;;;;27.92;11.77;;;;;;;;;;5057147;28;20053;-81
2022/11/28 12:10:17;;;;;;;23.13;11.38;;;;;;;;;;5054354;28;20047;-81
2022/11/28 12:12:43;;;;;;;24.67;10.77;;;;;;;;;;5071118;28;20044;-81
2022/11/28 12:15:17;;;;;;;27.42;11.82;;;;;;;;;;5054599;28;20416;-81
2022/11/28 12:17:46;;;;;;;24.50;11.70;;;;;;;;;;5071482;28;20040;-81
2022/11/28 12:20:31;;;;;;;26.92;11.95;;;;;;;;;;5071366;28;20079;-81
2022/11/28 12:22:57;;;;;;;25.10;11.65;;;;;;;;;;5056726;28;20045;-81
2022/11/28 12:25:38;;;;;;;25.35;11.98;;;;;;;;;;5062407;28;20081;-81
2022/11/28 12:28:16;;;;;;;24.52;12.13;;;;;;;;;;5094808;28;20040;-81
2022/11/28 12:30:42;;;;;;;27.70;12.05;;;;;;;;;;5062191;28;20486;-81
2022/11/28 12:33:20;;;;;;;28.33;12.15;;;;;;;;;;5065667;28;20036;-81
2022/11/28 12:36:01;;;;;;;26.90;11.88;;;;;;;;;;5056843;28;20036;-81
2022/11/28 12:38:27;;;;;;;27.25;12.35;;;;;;;;;;5054528;28;20049;-81
2022/11/28 12:41:12;;;;;;;26.58;12.30;;;;;;;;;;5070768;28;20056;-81
2022/11/28 12:43:53;;;;;;;28.13;12.85;;;;;;;;;;5070977;28;20045;-81
2022/11/28 12:46:27;;;;;;;26.77;12.15;;;;;;;;;;5079427;28;20044;-81
2022/11/28 12:49:13;;;;;;;26.23;11.65;;;;;;;;;;5070780;28;20102;-81
2022/11/28 12:51:51;;;;;;;27.23;12.40;;;;;;;;;;5070847;28;20485;-81
2022/11/28 12:54:17;;;;;;;29.35;12.00;;;;;;;;;;5070461;28;20044;-81
2022/11/28 12:57:02;;;;;;;27.92;12.57;;;;;;;;;;5070855;28;20050;-81
2022/11/28 12:59:34;;;;;;;26.40;12.50;;;;;;;;;;5071932;28;20040;-81
2022/11/28 13:02:18;;;;;;;33.22;13.27;;;;;;;;;;5059526;28;20055;-80
2022/11/28 13:05:02;;;;;;;35.72;13.15;;;;;;;;;;5070191;28;20366;-81
2022/11/28 13:07:40;;;;;;;35.00;13.63;;;;;;;;;;5040292;28;20083;-81
2022/11/28 13:10:26;;;;;;;33.90;13.15;;;;;;;;;;5045247;28;20071;-81
2022/11/28 13:12:52;;;;;;;;;;;;;;;;;;5056322;28;20460;-81
2022/11/28 13:15:21;;;;;;;33.13;13.23;;;;;;;;;;5074291;28;20000;-81
2022/11/28 13:17:47;;;;;;;38.47;14.02;;;;;;;;;;5057903;28;20047;-81
2022/11/28 13:20:13;;;;;;;36.67;13.88;;;;;;;;;;5057664;28;20432;-81
2022/11/28 13:22:46;;;;;;;39.58;14.07;;;;;;;;;;5074377;28;20036;-81
2022/11/28 13:25:26;;;;;;;38.15;13.88;;;;;;;;;;5074068;28;20523;-81
2022/11/28 13:27:55;;;;;;;37.30;14.52;;;;;;;;;;5074584;28;20508;-81
2022/11/28 13:30:22;;;;;;;48.85;15.07;;;;;;;;;;5079605;28;20049;-81
2022/11/28 13:33:03;;;;;;;42.97;14.10;;;;;;;;;;5070025;28;20090;-81
2022/11/28 13:35:30;;;;;;;46.35;16.02;;;;;;;;;;5074062;28;20076;-81
2022/11/28 13:38:00;;;;;;;44.92;15.30;;;;;;;;;;5074401;28;20516;-81
2022/11/28 13:40:42;;;;;;;55.17;15.98;;;;;;;;;;5057010;28;20417;-81
2022/11/28 13:43:14;;;;;;;47.55;15.25;;;;;;;;;;5073866;28;20040;-80
2022/11/28 13:45:44;;;;;;;48.45;14.98;;;;;;;;;;5105336;28;20036;-81
2022/11/28 13:48:43;;;;;;;55.17;16.15;;;;;;;;;;5062768;28;20413;-80
2022/11/28 13:51:12;;;;;;;53.47;16.13;;;;;;;;;;5040677;28;20076;-80
2022/11/28 13:53:42;;;;;;;55.78;15.50;;;;;;;;;;5073944;28;20085;-81
2022/11/28 13:56:08;;;;;;;57.30;17.48;;;;;;;;;;5073216;28;20032;-80
2022/11/28 13:58:42;;;;;;;53.58;17.02;;;;;;;;;;5057265;28;20043;-80
2022/11/28 14:01:16;;;;;;;63.00;17.52;;;;;;;;;;5073192;28;20066;-80
2022/11/28 14:03:48;;;;;;;60.53;17.40;;;;;;;;;;5073730;28;20052;-80
2022/11/28 14:06:18;;;;;;;61.92;17.73;;;;;;;;;;5073176;28;20047;-80
2022/11/28 14:08:46;;;;;;;60.97;17.75;;;;;;;;;;5056856;28;20043;-80
2022/11/28 14:11:24;;;;;;;74.28;18.80;;;;;;;;;;5073646;28;20171;-80
2022/11/28 14:14:09;;;;;;;64.93;18.95;;;;;;;;;;5057139;28;20086;-80
2022/11/28 14:16:46;;;;;;;72.70;19.15;;;;;;;;;;5073240;28;20033;-80
2022/11/28 14:19:31;;;;;;;69.25;18.77;;;;;;;;;;5073257;28;20401;-80
2022/11/28 14:22:06;;;;;;;71.35;19.20;;;;;;;;;;5056564;28;20508;-81
2022/11/28 14:24:47;;;;;;;77.17;20.10;;;;;;;;;;5073033;28;20504;-80
2022/11/28 14:27:25;;;;;;;77.63;20.00;;;;;;;;;;5072514;28;20286;-80
2022/11/28 14:29:52;;;;;;;84.15;19.55;;;;;;;;;;5069069;28;20520;-81
2022/11/28 14:32:24;;;;;;;82.22;20.33;;;;;;;;;;5073862;28;20044;-80
2022/11/28 14:34:50;;;;;;;85.20;21.65;;;;;;;;;;5073120;28;20079;-80
2022/11/28 14:37:20;;;;;;;79.38;20.52;;;;;;;;;;5071710;28;20143;-80